首页
METAR-TAF:

METAR-TAF

机场 :

腓特烈港机场

腓特烈港, 德国

纬度: 47-40N, 经度: 009-31E, 海拔: 416米

当前天气观测

该预报发布于32分钟前的00:50 UTC
风速5节,风向东转东北
温度 10°C
湿度 71%
气压 1032 hPa
能见度10公里或以上

METAR: EDNY 270050Z AUTO 06005KT 9999 // NCD 10/05 Q1032

时间: 03:22 (01:22 UTC)

预报

该预报发布于2小时和22分钟前的23:00 UTC
预报有效从27日的 00点(UTC)到 27日的 24点(UTC)
风速6节,风向北转东北
能见度10公里或以上
1500米以下无云,无积雨云
成为
从 27日的 07点(UTC)到 27日的 09点(UTC)
风速11节,风向北转东北
成为
从 27日的 15点(UTC)到 27日的 18点(UTC)
风速5节,风向北转东北

TAF: EDNY 262300Z 2700/2724 03006KT CAVOK BECMG 2707/2709 03011KT BECMG 2715/2718 03005KT

超过4000个机场的气象观测和天气预报(METAR&TAF报告)。

可查询的气象台以黄色和红色小点在地图上表示。

将鼠标移到小点上方,可查看气象台名称。

然后点击查看天气观测和预报。

如需切换地图:点击带黑十字的绿色按钮放大地图;点击带横线的绿色按钮缩小地图;或者点击绿色箭头查看邻近地区的地图。


METAR-TAF: